createdAt,value
2022-11-15T00:04:45.929Z,18.40
2022-11-15T00:10:58.442Z,17.10
2022-11-15T00:17:12.285Z,18.70
2022-11-15T00:23:23.875Z,16.73
2022-11-15T00:29:36.089Z,18.30
2022-11-15T00:35:49.190Z,17.37
2022-11-15T00:42:01.246Z,16.90
2022-11-15T00:48:12.726Z,16.17
2022-11-15T00:54:27.033Z,16.63
2022-11-15T01:00:39.168Z,15.13
2022-11-15T01:06:51.046Z,16.00
2022-11-15T01:13:07.771Z,16.87
2022-11-15T01:19:19.586Z,16.73
2022-11-15T01:25:31.453Z,17.23
2022-11-15T01:31:44.684Z,16.40
2022-11-15T01:37:56.317Z,16.57
2022-11-15T01:44:48.068Z,16.00
2022-11-15T01:51:03.192Z,14.67
2022-11-15T01:57:16.193Z,16.17
2022-11-15T02:03:36.814Z,14.60
2022-11-15T02:09:50.540Z,13.77
2022-11-15T02:16:09.307Z,13.47
2022-11-15T02:22:37.565Z,13.60
2022-11-15T02:29:01.318Z,13.50
2022-11-15T02:35:24.277Z,13.87
2022-11-15T02:41:44.223Z,14.43
2022-11-15T02:48:00.172Z,11.60
2022-11-15T02:54:17.701Z,12.33
2022-11-15T03:00:37.034Z,11.53
2022-11-15T03:06:55.271Z,12.13
2022-11-15T03:13:20.284Z,11.80
2022-11-15T03:19:39.456Z,11.47
2022-11-15T03:25:53.693Z,11.90
2022-11-15T03:32:18.117Z,12.17
2022-11-15T03:38:34.440Z,11.83
2022-11-15T03:44:52.905Z,13.00
2022-11-15T03:51:07.463Z,11.10
2022-11-15T03:57:19.614Z,11.80
2022-11-15T04:03:31.866Z,10.90
2022-11-15T04:10:03.555Z,10.13
2022-11-15T04:16:15.839Z,10.00
2022-11-15T04:22:41.769Z,11.00
2022-11-15T04:29:12.348Z,10.37
2022-11-15T04:35:24.544Z,11.20
2022-11-15T04:41:36.395Z,11.70
2022-11-15T04:47:49.750Z,11.03
2022-11-15T04:54:01.990Z,11.63
2022-11-15T05:00:16.469Z,12.70
2022-11-15T05:06:30.133Z,12.60
2022-11-15T05:12:42.241Z,12.90
2022-11-15T05:18:54.609Z,13.50
2022-11-15T05:25:09.282Z,12.37
2022-11-15T05:31:21.413Z,11.47
2022-11-15T05:37:33.307Z,12.67
2022-11-15T05:43:47.428Z,11.63
2022-11-15T05:50:03.392Z,13.00
2022-11-15T05:56:16.473Z,13.13
2022-11-15T06:02:29.820Z,13.20
2022-11-15T06:08:42.220Z,12.77
2022-11-15T06:14:54.097Z,11.70
2022-11-15T06:21:07.869Z,13.10
2022-11-15T06:27:19.796Z,12.70
2022-11-15T06:33:31.913Z,13.40
2022-11-15T06:39:45.473Z,12.77
2022-11-15T06:45:57.719Z,11.97
2022-11-15T06:52:09.803Z,13.10
2022-11-15T06:58:23.716Z,13.90
2022-11-15T07:04:37.523Z,12.70
2022-11-15T07:10:49.895Z,13.03
2022-11-15T07:17:07.966Z,13.63
2022-11-15T07:23:19.957Z,13.17
2022-11-15T07:29:31.868Z,13.00
2022-11-15T07:35:47.784Z,15.63
2022-11-15T07:42:13.872Z,12.90
2022-11-15T07:48:26.110Z,12.47
2022-11-15T07:54:42.953Z,13.43
2022-11-15T08:00:55.163Z,13.20
2022-11-15T08:07:07.212Z,13.20
2022-11-15T08:13:20.836Z,11.33
2022-11-15T08:19:32.611Z,13.00
2022-11-15T08:25:45.105Z,12.90
2022-11-15T08:31:58.810Z,11.60
2022-11-15T08:38:10.746Z,11.83
2022-11-15T08:44:23.061Z,13.23
2022-11-15T08:50:36.971Z,11.93
2022-11-15T08:56:49.245Z,11.37
2022-11-15T09:03:01.688Z,12.00
2022-11-15T09:09:14.812Z,11.70
2022-11-15T09:15:27.034Z,11.97
2022-11-15T09:21:40.014Z,10.70
2022-11-15T09:27:53.386Z,11.90
2022-11-15T09:34:05.474Z,10.60
2022-11-15T09:40:20.639Z,10.87
2022-11-15T09:46:45.184Z,11.73
2022-11-15T09:53:01.804Z,10.60
2022-11-15T09:59:09.251Z,10.50
2022-11-15T10:05:04.854Z,9.60
2022-11-15T10:11:30.481Z,10.00
2022-11-15T10:17:41.995Z,11.07
2022-11-15T10:23:36.856Z,9.47
2022-11-15T10:29:29.849Z,8.97
2022-11-15T10:35:26.747Z,9.83
2022-11-15T10:41:24.298Z,9.00
2022-11-15T10:47:36.086Z,9.10
2022-11-15T10:53:35.948Z,9.23
2022-11-15T10:59:38.781Z,8.07
2022-11-15T11:05:39.858Z,9.80
2022-11-15T11:11:47.601Z,8.33
2022-11-15T11:17:59.718Z,9.73
2022-11-15T11:23:56.718Z,8.60
2022-11-15T11:30:04.409Z,7.83
2022-11-15T11:36:07.549Z,8.20
2022-11-15T11:42:12.894Z,8.47
2022-11-15T11:48:14.772Z,8.77
2022-11-15T11:54:16.171Z,8.47
2022-11-15T12:00:20.318Z,8.40
2022-11-15T12:06:26.153Z,8.17
2022-11-15T12:12:30.103Z,7.90
2022-11-15T12:18:23.528Z,8.80
2022-11-15T12:24:22.483Z,7.97
2022-11-15T12:30:19.512Z,8.43
2022-11-15T12:36:14.865Z,8.07
2022-11-15T12:42:44.737Z,8.17
2022-11-15T12:49:04.439Z,7.83
2022-11-15T12:55:25.619Z,8.00
2022-11-15T13:01:56.425Z,7.80
2022-11-15T13:08:01.084Z,8.00
2022-11-15T13:13:55.067Z,7.20
2022-11-15T13:19:49.992Z,7.33
2022-11-15T13:26:15.378Z,8.03
2022-11-15T13:32:14.573Z,6.93
2022-11-15T13:38:08.369Z,7.70
2022-11-15T13:44:05.361Z,7.57
2022-11-15T13:49:59.844Z,7.77
2022-11-15T13:55:56.666Z,7.67
2022-11-15T14:01:52.979Z,8.43
2022-11-15T14:07:55.788Z,7.30
2022-11-15T14:14:07.629Z,7.20
2022-11-15T14:20:02.777Z,6.80
2022-11-15T14:25:57.059Z,7.10
2022-11-15T14:31:50.502Z,7.40
2022-11-15T14:37:46.016Z,6.70
2022-11-15T14:43:39.484Z,7.20
2022-11-15T14:49:32.485Z,6.87
2022-11-15T14:55:29.962Z,7.30
2022-11-15T15:01:26.299Z,6.67
2022-11-15T15:07:20.276Z,7.10
2022-11-15T15:13:19.990Z,6.33
2022-11-15T15:19:13.422Z,6.77
2022-11-15T15:25:22.025Z,6.67
2022-11-15T15:31:17.238Z,5.87
2022-11-15T15:37:21.360Z,6.50
2022-11-15T15:43:14.861Z,6.60
2022-11-15T15:49:12.047Z,6.07
2022-11-15T15:55:05.960Z,7.90
2022-11-15T16:01:00.587Z,9.10
2022-11-15T16:06:59.874Z,7.50
2022-11-15T16:12:54.208Z,8.60
2022-11-15T16:18:47.673Z,7.23
2022-11-15T16:24:42.157Z,7.20
2022-11-15T16:30:35.411Z,6.67
2022-11-15T16:36:31.340Z,7.40
2022-11-15T16:42:26.146Z,7.60
2022-11-15T16:48:25.132Z,7.07
2022-11-15T16:54:18.272Z,7.00
2022-11-15T17:00:16.573Z,7.57
2022-11-15T17:06:11.780Z,7.93
2022-11-15T17:12:05.520Z,7.63
2022-11-15T17:18:01.048Z,7.00
2022-11-15T17:23:54.492Z,8.30
2022-11-15T17:29:47.932Z,7.40
2022-11-15T17:35:42.745Z,8.53
2022-11-15T17:41:36.228Z,7.73
2022-11-15T17:47:29.684Z,9.77
2022-11-15T17:53:24.161Z,9.17
2022-11-15T17:59:21.397Z,11.23
2022-11-15T18:05:14.849Z,8.17
2022-11-15T18:11:12.252Z,8.10
2022-11-15T18:17:05.687Z,10.47
2022-11-15T18:22:59.104Z,7.63
2022-11-15T18:28:55.256Z,8.23
2022-11-15T18:34:48.305Z,7.93
2022-11-15T18:40:41.769Z,8.03
2022-11-15T18:46:36.146Z,7.87
2022-11-15T18:52:29.821Z,7.60
2022-11-15T18:58:23.202Z,8.07
2022-11-15T19:04:19.901Z,7.70
2022-11-15T19:10:13.616Z,9.20
2022-11-15T19:16:08.542Z,8.37
2022-11-15T19:22:04.104Z,8.93
2022-11-15T19:27:57.501Z,9.17
2022-11-15T19:33:51.152Z,9.10
2022-11-15T19:39:45.935Z,11.53
2022-11-15T19:45:39.360Z,9.83
2022-11-15T19:51:32.844Z,10.67
2022-11-15T19:57:27.605Z,10.83
2022-11-15T20:03:20.992Z,10.80
2022-11-15T20:09:16.338Z,10.70
2022-11-15T20:15:12.007Z,11.50
2022-11-15T20:21:06.729Z,11.57
2022-11-15T20:27:00.129Z,12.10
2022-11-15T20:32:54.896Z,12.37
2022-11-15T20:38:48.288Z,12.77
2022-11-15T20:44:41.783Z,11.50
2022-11-15T20:50:42.720Z,12.50
2022-11-15T20:56:36.808Z,12.50
2022-11-15T21:02:29.983Z,13.07
2022-11-15T21:08:24.900Z,13.20
2022-11-15T21:14:18.007Z,13.17
2022-11-15T21:20:12.236Z,11.93
2022-11-15T21:26:08.083Z,12.90
2022-11-15T21:32:06.591Z,11.80
2022-11-15T21:38:00.151Z,12.57
2022-11-15T21:43:58.938Z,12.00
2022-11-15T21:49:52.385Z,13.30
2022-11-15T21:55:45.881Z,13.00
2022-11-15T22:01:58.042Z,13.03
2022-11-15T22:07:51.688Z,12.93
2022-11-15T22:13:45.091Z,12.83
2022-11-15T22:19:51.936Z,13.40
2022-11-15T22:25:45.945Z,13.97
2022-11-15T22:31:39.434Z,13.13
2022-11-15T22:37:34.303Z,13.03
2022-11-15T22:43:28.745Z,13.70
2022-11-15T22:49:22.205Z,13.70
2022-11-15T22:55:17.882Z,13.87
2022-11-15T23:01:21.661Z,12.13
2022-11-15T23:07:15.361Z,12.37
2022-11-15T23:13:20.139Z,13.00
2022-11-15T23:19:13.790Z,13.13
2022-11-15T23:25:07.715Z,13.90
2022-11-15T23:31:23.333Z,13.20
2022-11-15T23:37:17.546Z,13.47
2022-11-15T23:43:11.052Z,12.90
2022-11-15T23:49:06.198Z,13.77
2022-11-15T23:54:59.837Z,14.20
